createdAt,value
2023-05-13T00:02:10.276Z,11.39
2023-05-13T00:07:11.505Z,11.07
2023-05-13T00:12:12.783Z,11.18
2023-05-13T00:17:14.188Z,10.86
2023-05-13T00:22:15.462Z,10.97
2023-05-13T00:27:16.687Z,10.70
2023-05-13T00:32:17.954Z,11.04
2023-05-13T00:37:19.297Z,11.10
2023-05-13T00:42:20.528Z,11.22
2023-05-13T00:47:21.762Z,10.88
2023-05-13T00:52:23.055Z,11.27
2023-05-13T00:57:24.362Z,11.15
2023-05-13T01:02:25.640Z,10.79
2023-05-13T01:07:26.956Z,11.33
2023-05-13T01:12:28.208Z,11.52
2023-05-13T01:17:29.600Z,11.62
2023-05-13T01:22:31.061Z,11.45
2023-05-13T01:27:32.383Z,11.40
2023-05-13T01:32:33.705Z,11.64
2023-05-13T01:37:34.986Z,11.60
2023-05-13T01:42:36.265Z,11.92
2023-05-13T01:47:37.585Z,11.89
2023-05-13T01:52:38.912Z,12.07
2023-05-13T01:57:40.370Z,11.82
2023-05-13T02:02:41.716Z,11.76
2023-05-13T02:07:43.112Z,11.93
2023-05-13T02:12:44.933Z,12.07
2023-05-13T02:17:46.354Z,12.16
2023-05-13T02:22:47.600Z,12.18
2023-05-13T02:27:48.816Z,11.98
2023-05-13T02:32:50.138Z,12.15
2023-05-13T02:42:52.770Z,12.13
2023-05-13T02:47:54.184Z,12.03
2023-05-13T02:52:55.529Z,11.92
2023-05-13T02:57:56.962Z,11.83
2023-05-13T03:02:58.513Z,11.97
2023-05-13T03:08:00.027Z,12.12
2023-05-13T03:13:01.260Z,11.98
2023-05-13T03:18:02.532Z,12.00
2023-05-13T03:23:03.847Z,12.03
2023-05-13T03:28:05.339Z,11.77
2023-05-13T03:33:06.901Z,11.96
2023-05-13T03:38:08.131Z,11.94
2023-05-13T03:43:09.362Z,11.73
2023-05-13T03:48:10.661Z,11.69
2023-05-13T03:53:12.219Z,11.79
2023-05-13T03:58:14.431Z,11.76
2023-05-13T04:03:19.369Z,11.92
2023-05-13T04:08:21.042Z,11.77
2023-05-13T04:13:22.526Z,12.02
2023-05-13T04:18:23.881Z,11.96
2023-05-13T04:23:25.119Z,12.13
2023-05-13T04:28:26.348Z,12.02
2023-05-13T04:33:27.616Z,11.91
2023-05-13T04:38:28.861Z,12.20
2023-05-13T04:43:30.311Z,12.34
2023-05-13T04:48:31.662Z,12.34
2023-05-13T04:53:33.397Z,13.50
2023-05-13T04:58:34.612Z,13.95
2023-05-13T05:03:35.902Z,14.19
2023-05-13T05:08:37.293Z,14.38
2023-05-13T05:13:38.666Z,14.57
2023-05-13T05:18:43.452Z,14.68
2023-05-13T05:23:44.943Z,15.02
2023-05-13T05:28:46.239Z,15.00
2023-05-13T05:33:47.550Z,14.93
2023-05-13T05:38:48.932Z,15.00
2023-05-13T05:43:50.190Z,15.10
2023-05-13T05:48:51.483Z,15.07
2023-05-13T05:53:52.750Z,15.30
2023-05-13T05:58:54.028Z,15.12
2023-05-13T06:03:55.502Z,15.17
2023-05-13T06:08:56.804Z,15.06
2023-05-13T06:13:58.064Z,15.10
2023-05-13T06:18:59.425Z,14.41
2023-05-13T06:24:02.785Z,14.30
2023-05-13T06:29:04.053Z,14.23
2023-05-13T06:34:05.531Z,14.22
2023-05-13T06:39:06.795Z,14.16
2023-05-13T06:44:08.041Z,14.22
2023-05-13T06:49:09.272Z,14.23
2023-05-13T06:54:10.623Z,14.24
2023-05-13T06:59:12.112Z,14.08
2023-05-13T07:04:13.448Z,14.24
2023-05-13T07:09:14.778Z,14.28
2023-05-13T07:14:16.055Z,14.25
2023-05-13T07:19:17.335Z,14.07
2023-05-13T07:24:18.616Z,13.99
2023-05-13T07:29:19.895Z,14.37
2023-05-13T07:34:21.195Z,14.68
2023-05-13T07:39:22.565Z,14.78
2023-05-13T07:44:23.852Z,15.02
2023-05-13T07:49:25.144Z,15.03
2023-05-13T07:54:26.406Z,14.89
2023-05-13T07:59:27.712Z,15.24
2023-05-13T08:04:29.002Z,15.25
2023-05-13T08:09:30.221Z,15.06
2023-05-13T08:14:31.438Z,15.26
2023-05-13T08:19:32.662Z,15.45
2023-05-13T08:24:34.002Z,15.35
2023-05-13T08:29:35.508Z,15.33
2023-05-13T08:34:36.883Z,15.17
2023-05-13T08:39:38.116Z,14.96
2023-05-13T08:44:39.539Z,15.16
2023-05-13T08:49:40.815Z,15.22
2023-05-13T08:54:42.063Z,15.32
2023-05-13T08:59:43.353Z,15.46
2023-05-13T09:04:44.638Z,15.28
2023-05-13T09:09:45.957Z,14.96
2023-05-13T09:14:47.233Z,14.87
2023-05-13T09:19:48.558Z,14.81
2023-05-13T09:24:49.956Z,15.17
2023-05-13T09:29:51.208Z,15.24
2023-05-13T09:34:52.424Z,15.02
2023-05-13T09:39:57.805Z,14.81
2023-05-13T09:44:59.078Z,15.02
2023-05-13T09:50:00.306Z,15.06
2023-05-13T09:55:05.121Z,15.24
2023-05-13T10:00:06.847Z,15.17
2023-05-13T10:05:10.478Z,15.36
2023-05-13T10:10:11.839Z,15.53
2023-05-13T10:15:13.143Z,15.73
2023-05-13T10:20:14.380Z,15.67
2023-05-13T10:25:15.600Z,15.83
2023-05-13T10:30:16.995Z,16.04
2023-05-13T10:35:18.222Z,15.60
2023-05-13T10:40:19.712Z,15.65
2023-05-13T10:45:21.144Z,15.78
2023-05-13T10:50:23.073Z,15.57
2023-05-13T10:55:24.862Z,15.67
2023-05-13T11:00:26.153Z,15.42
2023-05-13T11:05:27.396Z,15.68
2023-05-13T11:10:30.504Z,16.24
2023-05-13T11:15:31.767Z,16.61
2023-05-13T11:20:45.297Z,17.18
2023-05-13T11:25:52.796Z,17.14
2023-05-13T11:30:55.148Z,17.22
2023-05-13T11:35:56.662Z,17.17
2023-05-13T11:40:57.904Z,17.31
2023-05-13T11:45:59.214Z,17.76
2023-05-13T11:51:00.452Z,17.58
2023-05-13T11:56:01.724Z,17.86
2023-05-13T12:01:03.002Z,19.30
2023-05-13T12:06:05.481Z,19.56
2023-05-13T12:11:10.093Z,18.87
2023-05-13T12:16:11.366Z,18.50
2023-05-13T12:21:12.648Z,18.16
2023-05-13T12:26:13.867Z,17.85
2023-05-13T12:31:15.091Z,17.39
2023-05-13T12:36:16.444Z,17.21
2023-05-13T12:41:17.715Z,17.04
2023-05-13T12:46:19.051Z,16.81
2023-05-13T12:51:20.356Z,16.96
2023-05-13T13:01:23.695Z,17.24
2023-05-13T13:06:25.034Z,17.19
2023-05-13T13:11:26.449Z,17.23
2023-05-13T13:16:27.710Z,17.24
2023-05-13T13:21:29.025Z,17.62
2023-05-13T13:26:30.516Z,17.33
2023-05-13T13:31:31.828Z,17.29
2023-05-13T13:36:33.114Z,17.46
2023-05-13T13:41:34.414Z,17.35
2023-05-13T13:46:35.758Z,17.07
2023-05-13T13:51:37.028Z,17.17
2023-05-13T13:56:38.271Z,17.33
2023-05-13T14:01:40.359Z,17.33
2023-05-13T14:06:42.398Z,17.16
2023-05-13T14:11:43.637Z,17.15
2023-05-13T14:16:44.952Z,17.17
2023-05-13T14:21:46.290Z,17.42
2023-05-13T14:26:47.596Z,17.37
2023-05-13T14:31:48.846Z,17.30
2023-05-13T14:36:50.127Z,17.44
2023-05-13T14:41:51.369Z,17.85
2023-05-13T14:46:52.755Z,17.72
2023-05-13T14:51:54.068Z,17.70
2023-05-13T14:56:55.372Z,17.59
2023-05-13T15:01:57.454Z,17.70
2023-05-13T15:06:59.270Z,17.64
2023-05-13T15:12:00.605Z,17.60
2023-05-13T15:17:01.982Z,17.56
2023-05-13T15:22:05.199Z,17.71
2023-05-13T15:27:06.616Z,17.82
2023-05-13T15:32:07.901Z,17.92
2023-05-13T15:37:09.181Z,18.54
2023-05-13T15:42:10.449Z,18.23
2023-05-13T15:47:11.789Z,18.65
2023-05-13T15:52:14.653Z,18.56
2023-05-13T15:57:18.152Z,18.41
2023-05-13T16:02:19.537Z,18.82
2023-05-13T16:07:20.902Z,19.69
2023-05-13T16:12:22.212Z,19.88
2023-05-13T16:17:23.463Z,19.70
2023-05-13T16:22:24.793Z,19.81
2023-05-13T16:27:26.372Z,19.90
2023-05-13T16:32:27.637Z,20.48
2023-05-13T16:37:28.881Z,19.93
2023-05-13T16:42:31.259Z,20.73
2023-05-13T16:47:32.604Z,20.76
2023-05-13T16:52:34.184Z,20.45
2023-05-13T16:57:35.591Z,20.91
2023-05-13T17:02:37.172Z,21.14
2023-05-13T17:07:38.508Z,21.22
2023-05-13T17:12:39.753Z,20.88
2023-05-13T17:17:41.121Z,20.85
2023-05-13T17:22:47.057Z,19.93
2023-05-13T17:27:48.334Z,19.23
2023-05-13T17:32:49.745Z,19.87
2023-05-13T17:37:51.287Z,20.12
2023-05-13T17:42:53.024Z,20.39
2023-05-13T17:47:54.368Z,20.25
2023-05-13T17:52:55.720Z,19.58
2023-05-13T17:57:57.048Z,19.57
2023-05-13T18:02:58.373Z,19.19
2023-05-13T18:07:59.760Z,18.62
2023-05-13T18:13:01.044Z,18.25
2023-05-13T18:18:03.723Z,17.78
2023-05-13T18:23:05.207Z,17.21
2023-05-13T18:28:06.626Z,17.13
2023-05-13T18:33:08.040Z,16.77
2023-05-13T18:38:09.469Z,16.72
2023-05-13T18:43:10.730Z,16.60
2023-05-13T18:48:12.007Z,16.39
2023-05-13T18:53:13.399Z,16.25
2023-05-13T18:58:14.835Z,16.13
2023-05-13T19:03:16.325Z,16.00
2023-05-13T19:08:18.018Z,15.79
2023-05-13T19:13:21.159Z,15.44
2023-05-13T19:18:22.468Z,15.72
2023-05-13T19:23:23.760Z,15.82
2023-05-13T19:28:25.322Z,15.45
2023-05-13T19:33:26.561Z,15.41
2023-05-13T19:38:27.828Z,15.50
2023-05-13T19:43:29.071Z,15.40
2023-05-13T19:48:30.773Z,15.53
2023-05-13T19:53:32.106Z,15.46
2023-05-13T19:58:33.350Z,15.65
2023-05-13T20:03:34.707Z,15.62
2023-05-13T20:08:36.146Z,15.48
2023-05-13T20:13:37.413Z,15.43
2023-05-13T20:18:38.889Z,15.25
2023-05-13T20:23:41.569Z,15.07
2023-05-13T20:28:42.962Z,14.86
2023-05-13T20:33:44.288Z,14.87
2023-05-13T20:38:45.556Z,14.92
2023-05-13T20:43:46.772Z,15.12
2023-05-13T20:48:48.045Z,14.92
2023-05-13T20:53:49.290Z,14.92
2023-05-13T20:58:50.555Z,14.87
2023-05-13T21:03:51.826Z,14.82
2023-05-13T21:08:53.122Z,14.82
2023-05-13T21:13:54.429Z,14.70
2023-05-13T21:18:55.872Z,14.87
2023-05-13T21:23:57.309Z,14.89
2023-05-13T21:28:58.625Z,14.95
2023-05-13T21:33:59.962Z,14.78
2023-05-13T21:39:01.667Z,14.54
2023-05-13T21:44:03.118Z,14.60
2023-05-13T21:49:04.594Z,14.56
2023-05-13T21:54:06.049Z,14.36
2023-05-13T21:59:07.283Z,14.37
2023-05-13T22:04:08.991Z,14.30
2023-05-13T22:09:10.831Z,14.37
2023-05-13T22:14:12.083Z,14.40
2023-05-13T22:19:13.435Z,14.51
2023-05-13T22:24:14.932Z,14.38
2023-05-13T22:29:16.238Z,14.22
2023-05-13T22:34:17.535Z,14.06
2023-05-13T22:39:18.824Z,13.97
2023-05-13T22:44:20.315Z,13.93
2023-05-13T22:49:21.564Z,13.85
2023-05-13T22:54:22.849Z,13.96
2023-05-13T22:59:24.177Z,13.89
2023-05-13T23:04:25.630Z,13.94
2023-05-13T23:09:26.956Z,13.99
2023-05-13T23:14:30.015Z,13.72
2023-05-13T23:19:31.318Z,13.64
2023-05-13T23:24:32.639Z,13.67
2023-05-13T23:29:33.923Z,13.14
2023-05-13T23:34:35.254Z,13.09
2023-05-13T23:39:36.569Z,13.02
2023-05-13T23:44:37.811Z,13.22
2023-05-13T23:49:39.204Z,13.20
2023-05-13T23:54:40.725Z,13.19
2023-05-13T23:59:42.078Z,13.02
